Map

Track Data

SID SEASON NUMBER BASIN SUBBASIN NAME ISO_TIME NATURE LAT LON WMO_WIND WMO_PRES WMO_AGENCY TRACK_TYPE DIST2LAND LANDFALL IFLAG USA_AGENCY USA_ATCF_ID USA_LAT USA_LON USA_RECORD USA_STATUS USA_WIND USA_PRES USA_SSHS USA_R34_NE USA_R34_SE USA_R34_SW USA_R34_NW USA_R50_NE USA_R50_SE USA_R50_SW USA_R50_NW USA_R64_NE USA_R64_SE USA_R64_SW USA_R64_NW USA_POCI USA_ROCI USA_RMW USA_EYE TOKYO_LAT TOKYO_LON TOKYO_GRADE TOKYO_WIND TOKYO_PRES TOKYO_R50_DIR TOKYO_R50_LONG TOKYO_R50_SHORT TOKYO_R30_DIR TOKYO_R30_LONG TOKYO_R30_SHORT TOKYO_LAND CMA_LAT CMA_LON CMA_CAT CMA_WIND CMA_PRES HKO_LAT HKO_LON HKO_CAT HKO_WIND HKO_PRES NEWDELHI_LAT NEWDELHI_LON NEWDELHI_GRADE NEWDELHI_WIND NEWDELHI_PRES NEWDELHI_CI NEWDELHI_DP NEWDELHI_POCI REUNION_LAT REUNION_LON REUNION_TYPE REUNION_WIND REUNION_PRES REUNION_TNUM REUNION_CI REUNION_RMW REUNION_R34_NE REUNION_R34_SE REUNION_R34_SW REUNION_R34_NW REUNION_R50_NE REUNION_R50_SE REUNION_R50_SW REUNION_R50_NW REUNION_R64_NE REUNION_R64_SE REUNION_R64_SW REUNION_R64_NW BOM_LAT BOM_LON BOM_TYPE BOM_WIND BOM_PRES BOM_TNUM BOM_CI BOM_RMW BOM_R34_NE BOM_R34_SE BOM_R34_SW BOM_R34_NW BOM_R50_NE BOM_R50_SE BOM_R50_SW BOM_R50_NW BOM_R64_NE BOM_R64_SE BOM_R64_SW BOM_R64_NW BOM_ROCI BOM_POCI BOM_EYE BOM_POS_METHOD BOM_PRES_METHOD NADI_LAT NADI_LON NADI_CAT NADI_WIND NADI_PRES WELLINGTON_LAT WELLINGTON_LON WELLINGTON_WIND WELLINGTON_PRES DS824_LAT DS824_LON DS824_STAGE DS824_WIND DS824_PRES TD9636_LAT TD9636_LON TD9636_STAGE TD9636_WIND TD9636_PRES TD9635_LAT TD9635_LON TD9635_WIND TD9635_PRES TD9635_ROCI NEUMANN_LAT NEUMANN_LON NEUMANN_CLASS NEUMANN_WIND NEUMANN_PRES MLC_LAT MLC_LON MLC_CLASS MLC_WIND MLC_PRES USA_GUST BOM_GUST BOM_GUST_PER REUNION_GUST REUNION_GUST_PER USA_SEAHGT USA_SEARAD_NE USA_SEARAD_SE USA_SEARAD_SW USA_SEARAD_NW STORM_SPEED STORM_DIR
1878246N20312 1878 17 NA NA NOT_NAMED 1878-09-02 12:00:00 TS 20.5000 -48.0000 main 1766 1766 _____________O -1 20.5000 -48.0000 TS 45 6 323
1878246N20312 1878 17 NA NA NOT_NAMED 1878-09-02 15:00:00 TS 20.7500 -48.1999 main 1774 1765 _____________P -1 20.7500 -48.1999 TS 45 6 323
1878246N20312 1878 17 NA NA NOT_NAMED 1878-09-02 18:00:00 TS 21.0000 -48.4000 main 1772 1770 _____________O -1 21.0000 -48.4000 TS 45 6 323
1878246N20312 1878 17 NA NA NOT_NAMED 1878-09-02 21:00:00 TS 21.2500 -48.6001 main 1770 1768 _____________P -1 21.2500 -48.6001 TS 45 6 323
1878246N20312 1878 17 NA NA NOT_NAMED 1878-09-03 00:00:00 TS 21.5000 -48.8000 main 1775 1771 _____________O -1 21.5000 -48.8000 TS 45 6 323
1878246N20312 1878 17 NA NA NOT_NAMED 1878-09-03 03:00:00 TS 21.7500 -49.0075 main 1773 1754 _____________P -1 21.7500 -49.0075 TS 45 6 323
1878246N20312 1878 17 NA NA NOT_NAMED 1878-09-03 06:00:00 TS 22.0000 -49.2000 main 1756 1748 _____________O -1 22.0000 -49.2000 TS 45 6 328
1878246N20312 1878 17 NA NA NOT_NAMED 1878-09-03 09:00:00 TS 22.2499 -49.3501 main 1740 1735 _____________P -1 22.2499 -49.3501 TS 45 6 331
1878246N20312 1878 17 NA NA NOT_NAMED 1878-09-03 12:00:00 TS 22.5000 -49.5000 main 1737 1722 _____________O -1 22.5000 -49.5000 TS 45 6 328
1878246N20312 1878 17 NA NA NOT_NAMED 1878-09-03 15:00:00 TS 22.7500 -49.6925 main 1725 1707 _____________P -1 22.7500 -49.6925 TS 47 6 324
1878246N20312 1878 17 NA NA NOT_NAMED 1878-09-03 18:00:00 TS 23.0000 -49.9000 main 1710 1696 _____________O -1 23.0000 -49.9000 TS 50 6 323
1878246N20312 1878 17 NA NA NOT_NAMED 1878-09-03 21:00:00 TS 23.2500 -50.1001 main 1696 1683 _____________P -1 23.2500 -50.1001 TS 50 6 324
1878246N20312 1878 17 NA NA NOT_NAMED 1878-09-04 00:00:00 TS 23.5000 -50.3000 main 1686 1673 _____________O -1 23.5000 -50.3000 TS 50 6 323
1878246N20312 1878 17 NA NA NOT_NAMED 1878-09-04 03:00:00 TS 23.7500 -50.5075 main 1677 1661 _____________P -1 23.7500 -50.5075 TS 52 6 324
1878246N20312 1878 17 NA NA NOT_NAMED 1878-09-04 06:00:00 TS 24.0000 -50.7000 main 1665 1659 _____________O -1 24.0000 -50.7000 TS 55 6 327
1878246N20312 1878 17 NA NA NOT_NAMED 1878-09-04 09:00:00 TS 24.2274 -50.8503 main 1653 1651 _____________P -1 24.2274 -50.8503 TS 57 6 331
1878246N20312 1878 17 NA NA NOT_NAMED 1878-09-04 12:00:00 TS 24.5000 -51.0000 main 1656 1649 _____________O -1 24.5000 -51.0000 TS 60 7 334
1878246N20312 1878 17 NA NA NOT_NAMED 1878-09-04 15:00:00 TS 24.8850 -51.1999 main 1654 1649 _____________P -1 24.8850 -51.1999 TS 60 9 336
1878246N20312 1878 17 NA NA NOT_NAMED 1878-09-04 18:00:00 TS 25.3000 -51.4000 main 1654 1649 _____________O -1 25.3000 -51.4000 TS 60 8 337
1878246N20312 1878 17 NA NA NOT_NAMED 1878-09-04 21:00:00 TS 25.6500 -51.5577 main 1650 1650 _____________P -1 25.6500 -51.5577 TS 65 8 339
1878246N20312 1878 17 NA NA NOT_NAMED 1878-09-05 00:00:00 TS 26.0000 -51.7000 main 1662 1662 _____________O -1 26.0000 -51.7000 HU 70 8 341
1878246N20312 1878 17 NA NA NOT_NAMED 1878-09-05 03:00:00 TS 26.4000 -51.8500 main 1666 1666 _____________P -1 26.4000 -51.8500 HU 72 8 341
1878246N20312 1878 17 NA NA NOT_NAMED 1878-09-05 06:00:00 TS 26.8000 -52.0000 main 1680 1677 _____________O -1 26.8000 -52.0000 HU 75 8 339
1878246N20312 1878 17 NA NA NOT_NAMED 1878-09-05 09:00:00 TS 27.1350 -52.1650 main 1680 1680 _____________P -1 27.1350 -52.1650 HU 75 8 339
1878246N20312 1878 17 NA NA NOT_NAMED 1878-09-05 12:00:00 TS 27.5000 -52.3000 main 1697 1697 _____________O -1 27.5000 -52.3000 HU 75 9 348
1878246N20312 1878 17 NA NA NOT_NAMED 1878-09-05 15:00:00 TS 27.9775 -52.3726 main 1720 1720 _____________P -1 27.9775 -52.3726 HU 75 10 355
1878246N20312 1878 17 NA NA NOT_NAMED 1878-09-05 18:00:00 TS 28.5000 -52.4000 main 1754 1754 _____________O -1 28.5000 -52.4000 HU 75 10 359
1878246N20312 1878 17 NA NA NOT_NAMED 1878-09-05 21:00:00 TS 29.0000 -52.4002 main 1788 1788 _____________P -1 29.0000 -52.4002 HU 75 10 1
1878246N20312 1878 17 NA NA NOT_NAMED 1878-09-06 00:00:00 TS 29.5000 -52.4000 main 1823 1823 _____________O -1 29.5000 -52.4000 HU 75 10 358
1878246N20312 1878 17 NA NA NOT_NAMED 1878-09-06 03:00:00 TS 30.0000 -52.4498 main 1849 1793 _____________P -1 30.0000 -52.4498 HU 75 10 355
1878246N20312 1878 17 NA NA NOT_NAMED 1878-09-06 06:00:00 TS 30.5000 -52.5000 main 1793 1748 _____________O -1 30.5000 -52.5000 HU 75 10 357
1878246N20312 1878 17 NA NA NOT_NAMED 1878-09-06 09:00:00 TS 30.9625 -52.5149 main 1737 1681 _____________P -1 30.9625 -52.5149 HU 75 10 1
1878246N20312 1878 17 NA NA NOT_NAMED 1878-09-06 12:00:00 TS 31.5000 -52.5000 main 1681 1603 _____________O -1 31.5000 -52.5000 HU 75 13 2
1878246N20312 1878 17 NA NA NOT_NAMED 1878-09-06 15:00:00 TS 32.2125 -52.4795 main 1603 1515 _____________P -1 32.2125 -52.4795 HU 75 15 3
1878246N20312 1878 17 NA NA NOT_NAMED 1878-09-06 18:00:00 TS 33.0000 -52.4000 main 1515 1437 _____________O -1 33.0000 -52.4000 HU 75 16 7
1878246N20312 1878 17 NA NA NOT_NAMED 1878-09-06 21:00:00 TS 33.7498 -52.2519 main 1437 1350 _____________P -1 33.7498 -52.2519 HU 75 15 13
1878246N20312 1878 17 NA NA NOT_NAMED 1878-09-07 00:00:00 TS 34.5000 -52.0000 main 1350 1274 _____________O -1 34.5000 -52.0000 HU 75 16 19
1878246N20312 1878 17 NA NA NOT_NAMED 1878-09-07 03:00:00 TS 35.2502 -51.6228 main 1264 1190 _____________P -1 35.2502 -51.6228 HU 75 16 24
1878246N20312 1878 17 NA NA NOT_NAMED 1878-09-07 06:00:00 TS 36.0000 -51.2000 main 1190 1117 _____________O -1 36.0000 -51.2000 HU 75 16 22
1878246N20312 1878 17 NA NA NOT_NAMED 1878-09-07 09:00:00 TS 36.7266 -50.8992 main 1117 1036 _____________P -1 36.7266 -50.8992 HU 75 16 20
1878246N20312 1878 17 NA NA NOT_NAMED 1878-09-07 12:00:00 TS 37.5000 -50.5000 main 1036 961 _____________O -1 37.5000 -50.5000 HU 75 19 27
1878246N20312 1878 17 NA NA NOT_NAMED 1878-09-07 15:00:00 TS 38.3855 -49.8109 main 953 887 _____________P -1 38.3855 -49.8109 HU 72 22 33
1878246N20312 1878 17 NA NA NOT_NAMED 1878-09-07 18:00:00 TS 39.3000 -49.0000 main 879 819 _____________O -1 39.3000 -49.0000 HU 70 22 33
1878246N20312 1878 17 NA NA NOT_NAMED 1878-09-07 21:00:00 TS 40.1937 -48.2855 main 813 771 _____________P -1 40.1937 -48.2855 HU 70 21 34
1878246N20312 1878 17 NA NA NOT_NAMED 1878-09-08 00:00:00 TS 41.0000 -47.5000 main 771 755 _____________O -1 41.0000 -47.5000 HU 70 20 42
1878246N20312 1878 17 NA NA NOT_NAMED 1878-09-08 03:00:00 TS 41.7058 -46.5015 main 761 758 _____________P -1 41.7058 -46.5015 HU 70 19 51
1878246N20312 1878 17 NA NA NOT_NAMED 1878-09-08 06:00:00 TS 42.2000 -45.5000 main 780 780 _____________O -1 42.2000 -45.5000 HU 70 16 61
1878246N20312 1878 17 NA NA NOT_NAMED 1878-09-08 09:00:00 TS 42.4770 -44.6507 main 809 809 _____________P -1 42.4770 -44.6507 HU 70 11 75
1878246N20312 1878 17 NA NA NOT_NAMED 1878-09-08 12:00:00 TS 42.5000 -44.0000 main 854 854 _____________O -1 42.5000 -44.0000 HU 70 8 102
1878246N20312 1878 17 NA NA NOT_NAMED 1878-09-08 15:00:00 TS 42.3092 -43.5816 main 893 893 _____________P -1 42.3092 -43.5816 HU 70 7 134
1878246N20312 1878 17 NA NA NOT_NAMED 1878-09-08 18:00:00 TS 42.0000 -43.3000 main 933 933 _____________O -1 42.0000 -43.3000 HU 70 7 142
1878246N20312 1878 17 NA NA NOT_NAMED 1878-09-08 21:00:00 TS 41.7499 -42.9928 main 973 973 _____________P -1 41.7499 -42.9928 HU 70 7 138
1878246N20312 1878 17 NA NA NOT_NAMED 1878-09-09 00:00:00 TS 41.5000 -42.7000 main 1007 1007 _____________O -1 41.5000 -42.7000 HU 70 7 138
1878246N20312 1878 17 NA NA NOT_NAMED 1878-09-09 03:00:00 TS 41.2499 -42.4002 main 1047 1047 _____________P -1 41.2499 -42.4002 HU 67 7 138
1878246N20312 1878 17 NA NA NOT_NAMED 1878-09-09 06:00:00 TS 41.0000 -42.1000 main 1081 1081 _____________O -1 41.0000 -42.1000 HU 65 7 139
1878246N20312 1878 17 NA NA NOT_NAMED 1878-09-09 09:00:00 TS 40.7424 -41.8077 main 1122 1122 _____________P -1 40.7424 -41.8077 HU 65 7 138
1878246N20312 1878 17 NA NA NOT_NAMED 1878-09-09 12:00:00 TS 40.5000 -41.5000 main 1155 1155 _____________O -1 40.5000 -41.5000 HU 65 7 132
1878246N20312 1878 17 NA NA NOT_NAMED 1878-09-09 15:00:00 TS 40.2925 -41.1502 main 1189 1189 _____________P -1 40.2925 -41.1502 HU 62 7 127
1878246N20312 1878 17 NA NA NOT_NAMED 1878-09-09 18:00:00 TS 40.1000 -40.8000 main 1229 1229 _____________O -1 40.1000 -40.8000 TS 60 6 128
1878246N20312 1878 17 NA NA NOT_NAMED 1878-09-09 21:00:00 TS 39.8999 -40.4927 main 1263 1263 _____________P -1 39.8999 -40.4927 TS 60 6 131
1878246N20312 1878 17 NA NA NOT_NAMED 1878-09-10 00:00:00 TS 39.7000 -40.2000 main 1297 1297 _____________O -1 39.7000 -40.2000 TS 60 6 132
1878246N20312 1878 17 NA NA NOT_NAMED 1878-09-10 03:00:00 TS 39.4924 -39.9001 main 1331 1331 _____________P -1 39.4924 -39.9001 TS 57 6 131
1878246N20312 1878 17 NA NA NOT_NAMED 1878-09-10 06:00:00 TS 39.3000 -39.6000 main 1365 1365 _____________O -1 39.3000 -39.6000 TS 55 6 127
1878246N20312 1878 17 NA NA NOT_NAMED 1878-09-10 09:00:00 TS 39.1572 -39.3231 main 1391 1391 _____________P -1 39.1572 -39.3231 TS 55 6 123
1878246N20312 1878 17 NA NA NOT_NAMED 1878-09-10 12:00:00 TS 39.0000 -39.0000 main 1425 1425 _____________O -1 39.0000 -39.0000 TS 55 7 124
1878246N20312 1878 17 NA NA NOT_NAMED 1878-09-10 15:00:00 TS 38.7651 -38.5723 main 1466 1466 _____________P -1 38.7651 -38.5723 TS 52 9 125
1878246N20312 1878 17 NA NA NOT_NAMED 1878-09-10 18:00:00 TS 38.5000 -38.1000 main 1521 1521 _____________O -1 38.5000 -38.1000 TS 50 9 125
1878246N20312 1878 17 NA NA NOT_NAMED 1878-09-10 21:00:00 TS 38.2499 -37.6427 main 1575 1575 _____________P -1 38.2499 -37.6427 TS 50 9 125
1878246N20312 1878 17 NA NA NOT_NAMED 1878-09-11 00:00:00 TS 38.0000 -37.2000 main 1616 1616 _____________O -1 38.0000 -37.2000 TS 50 8 127
1878246N20312 1878 17 NA NA NOT_NAMED 1878-09-11 03:00:00 TS 37.7497 -36.8004 main 1664 1664 _____________P -1 37.7497 -36.8004 TS 47 8 128
1878246N20312 1878 17 NA NA NOT_NAMED 1878-09-11 06:00:00 TS 37.5000 -36.4000 main 1705 1705 _____________O -1 37.5000 -36.4000 TS 45 9 132
1878246N20312 1878 17 NA NA NOT_NAMED 1878-09-11 09:00:00 TS 37.1596 -35.9784 main 1754 1754 _____________P -1 37.1596 -35.9784 TS 45 9 125
1878246N20312 1878 17 NA NA NOT_NAMED 1878-09-11 12:00:00 TS 37.0000 -35.5000 main 1801 1801 _____________O -1 37.0000 -35.5000 TS 45 9 83
1878246N20312 1878 17 NA NA NOT_NAMED 1878-09-11 15:00:00 TS 37.2676 -34.9168 main 1819 1818 _____________P -1 37.2676 -34.9168 TS 45 12 54
1878246N20312 1878 17 NA NA NOT_NAMED 1878-09-11 18:00:00 TS 37.7000 -34.3000 main 1830 1830 _____________O -1 37.7000 -34.3000 TS 45 12 51
1878246N20312 1878 17 NA NA NOT_NAMED 1878-09-11 21:00:00 TS 38.0071 -33.7418 main 1850 1843 _____________P -1 38.0071 -33.7418 TS 45 11 55
1878246N20312 1878 17 NA NA NOT_NAMED 1878-09-12 00:00:00 TS 38.3000 -33.2000 main 1864 1856 _____________O -1 38.3000 -33.2000 TS 45 10 55
1878246N20312 1878 17 NA NA NOT_NAMED 1878-09-12 03:00:00 TS 38.5997 -32.6495 main 1855 1838 _____________P -1 38.5997 -32.6495 TS 45 10 55
1878246N20312 1878 17 NA NA NOT_NAMED 1878-09-12 06:00:00 TS 38.9000 -32.1000 main 1838 1816 _____________O -1 38.9000 -32.1000 TS 45 11 56
1878246N20312 1878 17 NA NA NOT_NAMED 1878-09-12 09:00:00 TS 39.1850 -31.5270 main 1816 1803 _____________P -1 39.1850 -31.5270 TS 42 10 55
1878246N20312 1878 17 NA NA NOT_NAMED 1878-09-12 12:00:00 TS 39.5000 -31.0000 main 1803 1796 _____________O -1 39.5000 -31.0000 TS 40 10 46
1878246N20312 1878 17 NA NA NOT_NAMED 1878-09-12 15:00:00 TS 39.8922 -30.5697 main 1796 1751 _____________P -1 39.8922 -30.5697 TS 37 10 38
1878246N20312 1878 17 NA NA NOT_NAMED 1878-09-12 18:00:00 TS 40.3000 -30.2000 main 1751 1717 _____________O -1 40.3000 -30.2000 TS 35 9 36
1878246N20312 1878 17 NA NA NOT_NAMED 1878-09-12 21:00:00 TS 40.6497 -29.8491 main 1709 1674 _____________P -1 40.6497 -29.8491 TS 35 9 37
1878246N20312 1878 17 NA NA NOT_NAMED 1878-09-13 00:00:00 ET 41.0000 -29.5000 main 1674 1631 _____________O -1 41.0000 -29.5000 EX 35 9 37
1878246N20312 1878 17 NA NA NOT_NAMED 1878-09-13 03:00:00 ET 41.4000 -29.1000 main 1631 1589 _____________P -1 41.4000 -29.1000 EX 35 10 37
1878246N20312 1878 17 NA NA NOT_NAMED 1878-09-13 06:00:00 ET 41.8000 -28.7000 main 1589 1558 _____________O -1 41.8000 -28.7000 EX 35 10 37
1878246N20312 1878 17 NA NA NOT_NAMED 1878-09-13 09:00:00 ET 42.1626 -28.3379 main 1548 1519 _____________P -1 42.1626 -28.3379 EX 35 9 37
1878246N20312 1878 17 NA NA NOT_NAMED 1878-09-13 12:00:00 ET 42.5000 -28.0000 main 1519 _____________O -1 42.5000 -28.0000 EX 35 8 37

About IBTrACS Database

This database is a web-friendly format of International Best Track Archive for Climate Stewardship (IBTrACS), a global best track data archive curated by NOAA dating back to 1842.

Updated: 2021-10-21